Baie-Des-Sables, Canada
Current Conditions -  °F | °C
As of 2:00 AM on Friday 28 Nov 2014 (Local Time) from CYYY Reporting Station
Broken Clouds Broken Clouds  
Wind Chill: 11°   Ceiling: 2500
Heat Index: 18°   Visibility: 30mi
Dew Point: 10°   Wind: 5mph
Humidity: 73%   Direction: 320°NW
Pressure: 30.06"   Gusts: NA
Location:  48.72°N, 67.87°W
Report Text: CYYY 280700Z 32004KT 30SM BKN025 M08/M12 A3006 RMK SC7 SLP182
Loading
Personal Weather Stations






























Interactive Weather Map New forecast layout! Learn more

10-Day Weather Forecast

Advertisements
Track Severe Weather on mobile